EEPU

Pärnu Airport

Pärnu, Estonia
METAR EEPU 181250Z 20007KT 150V220 8000 NSC 13/11 Q1015
Observed Flight Rules
Oct-18 @ 12:50 UTC (3 hours ago) Marginal Visual Flight Rules
Wind Visibility Clouds
200° at 7 knots 7,998 meters
  • Clear skies
Temperatures Readings
Current 13°C / 55°F
Dewpoint 11°C / 52°F
Humidity 88%
Altimeter 29.97" Hg
Pressure 1015 hPa
Elevation 14
METAR EEPU 181250Z 20007KT 150V220 8000 NSC 13/11 Q1015
Observed Flight Rules
Oct-18 @ 12:50 UTC
(3 hours ago)
MVFR
Wind Visibility
200° at 7 knots 7,998 meters
Clouds
  • Clear skies
Temperature Dewpoint
13°C / 55°F 11°C / 52°F
Humidity Altimeter Pressure
88% 29.97" Hg 1015 hPa